sensor_id;sensor_type;location;lat;lon;timestamp;temperature;humidity
70074;DHT22;57445;51.058;3.698;2022-10-15T00:01:55;16.60;97.30
70074;DHT22;57445;51.058;3.698;2022-10-15T00:04:30;16.70;96.80
70074;DHT22;57445;51.058;3.698;2022-10-15T00:07:02;16.50;97.00
70074;DHT22;57445;51.058;3.698;2022-10-15T00:09:34;16.70;96.60
70074;DHT22;57445;51.058;3.698;2022-10-15T00:12:07;16.70;96.60
70074;DHT22;57445;51.058;3.698;2022-10-15T00:14:34;16.50;96.90
70074;DHT22;57445;51.058;3.698;2022-10-15T00:17:02;16.50;97.10
70074;DHT22;57445;51.058;3.698;2022-10-15T00:19:31;16.50;97.30
70074;DHT22;57445;51.058;3.698;2022-10-15T00:22:04;16.40;97.30
70074;DHT22;57445;51.058;3.698;2022-10-15T00:24:36;16.50;97.30
70074;DHT22;57445;51.058;3.698;2022-10-15T00:27:04;16.40;97.60
70074;DHT22;57445;51.058;3.698;2022-10-15T00:29:32;16.10;97.90
70074;DHT22;57445;51.058;3.698;2022-10-15T00:32:04;16.10;98.10
70074;DHT22;57445;51.058;3.698;2022-10-15T00:34:38;16.20;98.10
70074;DHT22;57445;51.058;3.698;2022-10-15T00:37:05;16.40;97.70
70074;DHT22;57445;51.058;3.698;2022-10-15T00:39:33;16.60;97.50
70074;DHT22;57445;51.058;3.698;2022-10-15T00:42:02;16.60;97.30
70074;DHT22;57445;51.058;3.698;2022-10-15T00:44:50;16.90;96.90
70074;DHT22;57445;51.058;3.698;2022-10-15T00:47:24;16.80;96.80
70074;DHT22;57445;51.058;3.698;2022-10-15T00:49:58;16.90;96.70
70074;DHT22;57445;51.058;3.698;2022-10-15T00:52:33;17.10;96.20
70074;DHT22;57445;51.058;3.698;2022-10-15T00:55:10;17.00;96.30
70074;DHT22;57445;51.058;3.698;2022-10-15T00:57:39;16.60;96.90
70074;DHT22;57445;51.058;3.698;2022-10-15T01:00:10;16.50;97.20
70074;DHT22;57445;51.058;3.698;2022-10-15T01:02:43;16.30;97.60
70074;DHT22;57445;51.058;3.698;2022-10-15T01:05:15;16.30;97.60
70074;DHT22;57445;51.058;3.698;2022-10-15T01:07:47;16.70;97.40
70074;DHT22;57445;51.058;3.698;2022-10-15T01:10:20;16.40;97.30
70074;DHT22;57445;51.058;3.698;2022-10-15T01:12:56;16.20;97.60
70074;DHT22;57445;51.058;3.698;2022-10-15T01:15:28;16.10;97.80
70074;DHT22;57445;51.058;3.698;2022-10-15T01:18:00;16.20;97.70
70074;DHT22;57445;51.058;3.698;2022-10-15T01:20:51;16.10;97.70
70074;DHT22;57445;51.058;3.698;2022-10-15T01:24:01;16.00;97.80
70074;DHT22;57445;51.058;3.698;2022-10-15T01:33:17;16.00;97.70
70074;DHT22;57445;51.058;3.698;2022-10-15T01:35:56;16.10;97.70
70074;DHT22;57445;51.058;3.698;2022-10-15T01:38:36;15.90;97.70
70074;DHT22;57445;51.058;3.698;2022-10-15T01:41:17;15.80;98.10
70074;DHT22;57445;51.058;3.698;2022-10-15T01:43:57;15.90;98.20
70074;DHT22;57445;51.058;3.698;2022-10-15T01:46:35;15.90;98.10
70074;DHT22;57445;51.058;3.698;2022-10-15T01:49:12;15.70;98.30
70074;DHT22;57445;51.058;3.698;2022-10-15T01:51:47;15.70;98.50
70074;DHT22;57445;51.058;3.698;2022-10-15T01:54:17;15.70;98.50
70074;DHT22;57445;51.058;3.698;2022-10-15T01:56:47;15.70;98.30
70074;DHT22;57445;51.058;3.698;2022-10-15T01:59:18;15.70;98.30
70074;DHT22;57445;51.058;3.698;2022-10-15T02:01:47;15.70;98.20
70074;DHT22;57445;51.058;3.698;2022-10-15T02:04:20;15.60;98.20
70074;DHT22;57445;51.058;3.698;2022-10-15T02:06:59;15.40;98.40
70074;DHT22;57445;51.058;3.698;2022-10-15T02:09:35;15.40;98.60
70074;DHT22;57445;51.058;3.698;2022-10-15T02:12:11;15.40;98.90
70074;DHT22;57445;51.058;3.698;2022-10-15T02:14:51;15.40;98.80
70074;DHT22;57445;51.058;3.698;2022-10-15T02:17:23;15.40;98.80
70074;DHT22;57445;51.058;3.698;2022-10-15T02:19:58;15.40;98.80
70074;DHT22;57445;51.058;3.698;2022-10-15T02:22:38;15.50;99.10
70074;DHT22;57445;51.058;3.698;2022-10-15T02:25:13;15.50;99.50
70074;DHT22;57445;51.058;3.698;2022-10-15T02:27:47;15.30;99.90
70074;DHT22;57445;51.058;3.698;2022-10-15T02:30:22;15.50;99.60
70074;DHT22;57445;51.058;3.698;2022-10-15T02:32:52;15.40;99.90
70074;DHT22;57445;51.058;3.698;2022-10-15T02:35:27;15.50;99.90
70074;DHT22;57445;51.058;3.698;2022-10-15T02:37:56;15.70;99.50
70074;DHT22;57445;51.058;3.698;2022-10-15T02:40:33;15.70;99.30
70074;DHT22;57445;51.058;3.698;2022-10-15T02:43:08;15.60;99.70
70074;DHT22;57445;51.058;3.698;2022-10-15T02:45:41;15.70;99.60
70074;DHT22;57445;51.058;3.698;2022-10-15T02:48:08;15.80;99.60
70074;DHT22;57445;51.058;3.698;2022-10-15T02:50:37;16.10;98.90
70074;DHT22;57445;51.058;3.698;2022-10-15T02:53:05;16.20;98.60
70074;DHT22;57445;51.058;3.698;2022-10-15T02:55:37;16.40;98.20
70074;DHT22;57445;51.058;3.698;2022-10-15T02:58:09;16.40;97.70
70074;DHT22;57445;51.058;3.698;2022-10-15T03:00:41;16.50;97.80
70074;DHT22;57445;51.058;3.698;2022-10-15T03:03:09;16.70;97.50
70074;DHT22;57445;51.058;3.698;2022-10-15T03:05:38;16.40;97.80
70074;DHT22;57445;51.058;3.698;2022-10-15T03:08:06;16.10;98.30
70074;DHT22;57445;51.058;3.698;2022-10-15T03:10:33;16.00;98.50
70074;DHT22;57445;51.058;3.698;2022-10-15T03:13:01;16.10;98.20
70074;DHT22;57445;51.058;3.698;2022-10-15T03:15:29;16.20;98.00
70074;DHT22;57445;51.058;3.698;2022-10-15T03:17:57;16.10;98.00
70074;DHT22;57445;51.058;3.698;2022-10-15T03:20:25;16.10;98.00
70074;DHT22;57445;51.058;3.698;2022-10-15T03:22:54;15.70;98.50
70074;DHT22;57445;51.058;3.698;2022-10-15T03:25:26;15.60;98.80
70074;DHT22;57445;51.058;3.698;2022-10-15T03:27:58;15.50;99.20
70074;DHT22;57445;51.058;3.698;2022-10-15T03:30:30;15.60;99.00
70074;DHT22;57445;51.058;3.698;2022-10-15T03:32:57;15.60;99.00
70074;DHT22;57445;51.058;3.698;2022-10-15T03:35:32;15.70;99.00
70074;DHT22;57445;51.058;3.698;2022-10-15T03:38:01;15.80;98.90
70074;DHT22;57445;51.058;3.698;2022-10-15T03:40:33;15.70;98.90
70074;DHT22;57445;51.058;3.698;2022-10-15T03:43:05;15.60;99.20
70074;DHT22;57445;51.058;3.698;2022-10-15T03:45:37;15.80;99.10
70074;DHT22;57445;51.058;3.698;2022-10-15T03:48:10;16.00;98.50
70074;DHT22;57445;51.058;3.698;2022-10-15T03:50:42;16.20;98.10
70074;DHT22;57445;51.058;3.698;2022-10-15T03:53:15;16.20;97.80
70074;DHT22;57445;51.058;3.698;2022-10-15T03:55:43;16.20;98.00
70074;DHT22;57445;51.058;3.698;2022-10-15T03:58:10;16.20;98.00
70074;DHT22;57445;51.058;3.698;2022-10-15T04:00:40;16.30;98.10
70074;DHT22;57445;51.058;3.698;2022-10-15T04:03:13;16.20;97.90
70074;DHT22;57445;51.058;3.698;2022-10-15T04:05:49;16.20;97.90
70074;DHT22;57445;51.058;3.698;2022-10-15T04:08:18;16.20;97.30
70074;DHT22;57445;51.058;3.698;2022-10-15T04:10:46;16.40;97.30
70074;DHT22;57445;51.058;3.698;2022-10-15T04:13:14;16.30;97.50
70074;DHT22;57445;51.058;3.698;2022-10-15T04:15:46;16.20;97.50
70074;DHT22;57445;51.058;3.698;2022-10-15T04:18:18;16.00;97.80
70074;DHT22;57445;51.058;3.698;2022-10-15T04:20:51;16.10;98.40
70074;DHT22;57445;51.058;3.698;2022-10-15T04:23:20;16.20;98.00
70074;DHT22;57445;51.058;3.698;2022-10-15T04:25:53;16.10;97.80
70074;DHT22;57445;51.058;3.698;2022-10-15T04:28:20;16.30;97.70
70074;DHT22;57445;51.058;3.698;2022-10-15T04:30:55;16.40;97.40
70074;DHT22;57445;51.058;3.698;2022-10-15T04:33:24;16.50;97.00
70074;DHT22;57445;51.058;3.698;2022-10-15T04:35:58;16.20;97.30
70074;DHT22;57445;51.058;3.698;2022-10-15T04:38:27;16.10;97.70
70074;DHT22;57445;51.058;3.698;2022-10-15T04:40:59;16.20;97.50
70074;DHT22;57445;51.058;3.698;2022-10-15T04:43:28;16.20;97.40
70074;DHT22;57445;51.058;3.698;2022-10-15T04:46:01;16.30;97.20
70074;DHT22;57445;51.058;3.698;2022-10-15T04:48:31;16.30;97.20
70074;DHT22;57445;51.058;3.698;2022-10-15T04:51:02;16.00;97.50
70074;DHT22;57445;51.058;3.698;2022-10-15T04:53:33;16.00;98.00
70074;DHT22;57445;51.058;3.698;2022-10-15T04:56:06;15.90;97.70
70074;DHT22;57445;51.058;3.698;2022-10-15T04:58:39;15.90;97.90
70074;DHT22;57445;51.058;3.698;2022-10-15T05:01:08;16.00;97.70
70074;DHT22;57445;51.058;3.698;2022-10-15T05:03:42;16.10;97.50
70074;DHT22;57445;51.058;3.698;2022-10-15T05:06:16;16.20;97.20
70074;DHT22;57445;51.058;3.698;2022-10-15T05:08:48;16.40;97.00
70074;DHT22;57445;51.058;3.698;2022-10-15T05:11:17;16.40;96.80
70074;DHT22;57445;51.058;3.698;2022-10-15T05:13:50;16.40;96.60
70074;DHT22;57445;51.058;3.698;2022-10-15T05:16:19;16.40;96.80
70074;DHT22;57445;51.058;3.698;2022-10-15T05:18:49;16.20;96.80
70074;DHT22;57445;51.058;3.698;2022-10-15T05:21:21;16.10;97.20
70074;DHT22;57445;51.058;3.698;2022-10-15T05:23:50;16.00;97.30
70074;DHT22;57445;51.058;3.698;2022-10-15T05:26:20;15.90;97.60
70074;DHT22;57445;51.058;3.698;2022-10-15T05:28:48;15.90;97.30
70074;DHT22;57445;51.058;3.698;2022-10-15T05:31:22;15.90;97.40
70074;DHT22;57445;51.058;3.698;2022-10-15T05:33:57;15.80;97.60
70074;DHT22;57445;51.058;3.698;2022-10-15T05:36:26;15.60;98.00
70074;DHT22;57445;51.058;3.698;2022-10-15T05:39:02;15.50;98.20
70074;DHT22;57445;51.058;3.698;2022-10-15T05:41:32;15.60;98.30
70074;DHT22;57445;51.058;3.698;2022-10-15T05:43:59;15.60;98.30
70074;DHT22;57445;51.058;3.698;2022-10-15T05:46:27;15.50;98.30
70074;DHT22;57445;51.058;3.698;2022-10-15T05:48:57;15.70;98.30
70074;DHT22;57445;51.058;3.698;2022-10-15T05:51:26;15.90;97.80
70074;DHT22;57445;51.058;3.698;2022-10-15T05:53:55;15.90;97.60
70074;DHT22;57445;51.058;3.698;2022-10-15T05:56:28;15.60;98.10
70074;DHT22;57445;51.058;3.698;2022-10-15T05:58:56;15.60;98.50
70074;DHT22;57445;51.058;3.698;2022-10-15T06:01:32;15.70;98.00
70074;DHT22;57445;51.058;3.698;2022-10-15T06:03:59;15.70;98.20
70074;DHT22;57445;51.058;3.698;2022-10-15T06:06:32;15.80;97.90
70074;DHT22;57445;51.058;3.698;2022-10-15T06:09:00;15.60;98.30
70074;DHT22;57445;51.058;3.698;2022-10-15T06:11:35;15.70;98.30
70074;DHT22;57445;51.058;3.698;2022-10-15T06:14:03;15.80;98.20
70074;DHT22;57445;51.058;3.698;2022-10-15T06:16:30;15.90;98.00
70074;DHT22;57445;51.058;3.698;2022-10-15T06:18:58;16.10;97.60
70074;DHT22;57445;51.058;3.698;2022-10-15T06:21:26;15.90;97.80
70074;DHT22;57445;51.058;3.698;2022-10-15T06:23:58;15.90;97.90
70074;DHT22;57445;51.058;3.698;2022-10-15T06:26:26;16.20;97.70
70074;DHT22;57445;51.058;3.698;2022-10-15T06:28:55;16.10;97.60
70074;DHT22;57445;51.058;3.698;2022-10-15T06:31:30;16.10;97.50
70074;DHT22;57445;51.058;3.698;2022-10-15T06:34:02;16.20;97.50
70074;DHT22;57445;51.058;3.698;2022-10-15T06:36:34;16.20;97.50
70074;DHT22;57445;51.058;3.698;2022-10-15T06:39:06;16.20;97.50
70074;DHT22;57445;51.058;3.698;2022-10-15T06:41:38;16.20;97.40
70074;DHT22;57445;51.058;3.698;2022-10-15T06:44:08;16.30;97.40
70074;DHT22;57445;51.058;3.698;2022-10-15T06:46:40;16.40;97.30
70074;DHT22;57445;51.058;3.698;2022-10-15T06:49:08;16.30;97.30
70074;DHT22;57445;51.058;3.698;2022-10-15T06:51:35;16.30;97.50
70074;DHT22;57445;51.058;3.698;2022-10-15T06:54:08;16.20;97.60
70074;DHT22;57445;51.058;3.698;2022-10-15T06:56:35;16.30;97.60
70074;DHT22;57445;51.058;3.698;2022-10-15T06:59:09;16.40;97.50
70074;DHT22;57445;51.058;3.698;2022-10-15T07:01:42;16.50;97.40
70074;DHT22;57445;51.058;3.698;2022-10-15T07:04:09;16.50;97.30
70074;DHT22;57445;51.058;3.698;2022-10-15T07:06:37;16.50;97.50
70074;DHT22;57445;51.058;3.698;2022-10-15T07:09:06;16.60;97.30
70074;DHT22;57445;51.058;3.698;2022-10-15T07:11:38;16.70;97.20
70074;DHT22;57445;51.058;3.698;2022-10-15T07:14:06;16.60;97.40
70074;DHT22;57445;51.058;3.698;2022-10-15T07:16:40;16.60;97.70
70074;DHT22;57445;51.058;3.698;2022-10-15T07:19:07;16.90;97.10
70074;DHT22;57445;51.058;3.698;2022-10-15T07:21:39;16.80;97.20
70074;DHT22;57445;51.058;3.698;2022-10-15T07:24:07;16.80;97.40
70074;DHT22;57445;51.058;3.698;2022-10-15T07:26:40;16.70;97.90
70074;DHT22;57445;51.058;3.698;2022-10-15T07:29:08;16.70;97.70
70074;DHT22;57445;51.058;3.698;2022-10-15T07:31:35;16.70;97.70
70074;DHT22;57445;51.058;3.698;2022-10-15T07:34:09;16.80;97.60
70074;DHT22;57445;51.058;3.698;2022-10-15T07:36:41;17.20;97.10
70074;DHT22;57445;51.058;3.698;2022-10-15T07:39:09;17.30;96.70
70074;DHT22;57445;51.058;3.698;2022-10-15T07:41:41;17.10;97.20
70074;DHT22;57445;51.058;3.698;2022-10-15T07:44:09;17.20;97.10
70074;DHT22;57445;51.058;3.698;2022-10-15T07:46:37;17.10;97.40
70074;DHT22;57445;51.058;3.698;2022-10-15T07:49:05;17.30;97.20
70074;DHT22;57445;51.058;3.698;2022-10-15T07:51:34;17.30;97.30
70074;DHT22;57445;51.058;3.698;2022-10-15T07:54:06;17.60;97.30
70074;DHT22;57445;51.058;3.698;2022-10-15T07:56:38;17.20;97.30
70074;DHT22;57445;51.058;3.698;2022-10-15T07:59:07;17.50;97.00
70074;DHT22;57445;51.058;3.698;2022-10-15T08:01:35;17.50;96.80
70074;DHT22;57445;51.058;3.698;2022-10-15T08:04:07;17.50;96.80
70074;DHT22;57445;51.058;3.698;2022-10-15T08:06:36;17.70;96.50
70074;DHT22;57445;51.058;3.698;2022-10-15T08:09:04;17.60;96.80
70074;DHT22;57445;51.058;3.698;2022-10-15T08:11:32;17.40;97.10
70074;DHT22;57445;51.058;3.698;2022-10-15T08:13:59;17.70;96.90
70074;DHT22;57445;51.058;3.698;2022-10-15T08:16:33;17.60;97.20
70074;DHT22;57445;51.058;3.698;2022-10-15T08:19:02;17.60;97.00
70074;DHT22;57445;51.058;3.698;2022-10-15T08:21:29;17.60;97.00
70074;DHT22;57445;51.058;3.698;2022-10-15T08:23:59;17.60;96.90
70074;DHT22;57445;51.058;3.698;2022-10-15T08:26:31;17.80;97.00
70074;DHT22;57445;51.058;3.698;2022-10-15T08:28:59;17.70;97.20
70074;DHT22;57445;51.058;3.698;2022-10-15T08:31:31;17.70;97.10
70074;DHT22;57445;51.058;3.698;2022-10-15T08:34:04;17.60;97.40
70074;DHT22;57445;51.058;3.698;2022-10-15T08:36:36;17.60;97.50
70074;DHT22;57445;51.058;3.698;2022-10-15T08:39:05;17.80;97.40
70074;DHT22;57445;51.058;3.698;2022-10-15T08:41:43;17.80;97.70
70074;DHT22;57445;51.058;3.698;2022-10-15T08:44:17;18.20;97.10
70074;DHT22;57445;51.058;3.698;2022-10-15T08:46:49;18.20;97.00
70074;DHT22;57445;51.058;3.698;2022-10-15T08:49:25;18.10;97.00
70074;DHT22;57445;51.058;3.698;2022-10-15T08:52:00;18.20;96.90
70074;DHT22;57445;51.058;3.698;2022-10-15T08:54:32;18.30;96.70
70074;DHT22;57445;51.058;3.698;2022-10-15T08:57:19;18.30;97.00
70074;DHT22;57445;51.058;3.698;2022-10-15T08:59:53;18.50;97.20
70074;DHT22;57445;51.058;3.698;2022-10-15T09:02:34;18.60;96.50
70074;DHT22;57445;51.058;3.698;2022-10-15T09:05:25;18.60;96.50
70074;DHT22;57445;51.058;3.698;2022-10-15T09:08:05;18.60;96.70
70074;DHT22;57445;51.058;3.698;2022-10-15T09:10:43;18.50;96.90
70074;DHT22;57445;51.058;3.698;2022-10-15T09:13:23;18.50;97.40
70074;DHT22;57445;51.058;3.698;2022-10-15T09:15:54;18.40;97.50
70074;DHT22;57445;51.058;3.698;2022-10-15T09:18:26;18.50;97.20
70074;DHT22;57445;51.058;3.698;2022-10-15T09:20:59;18.30;97.80
70074;DHT22;57445;51.058;3.698;2022-10-15T09:23:29;18.30;97.90
70074;DHT22;57445;51.058;3.698;2022-10-15T09:26:15;18.40;98.00
70074;DHT22;57445;51.058;3.698;2022-10-15T09:28:51;18.50;97.70
70074;DHT22;57445;51.058;3.698;2022-10-15T09:31:28;18.60;97.50
70074;DHT22;57445;51.058;3.698;2022-10-15T09:33:58;18.60;97.80
70074;DHT22;57445;51.058;3.698;2022-10-15T09:36:36;18.80;97.80
70074;DHT22;57445;51.058;3.698;2022-10-15T09:39:17;19.20;96.50
70074;DHT22;57445;51.058;3.698;2022-10-15T09:41:58;19.20;96.90
70074;DHT22;57445;51.058;3.698;2022-10-15T09:44:36;18.80;97.60
70074;DHT22;57445;51.058;3.698;2022-10-15T09:47:15;18.80;97.70
70074;DHT22;57445;51.058;3.698;2022-10-15T09:49:47;18.90;97.40
70074;DHT22;57445;51.058;3.698;2022-10-15T09:52:24;18.60;98.20
70074;DHT22;57445;51.058;3.698;2022-10-15T09:55:08;18.70;98.10
70074;DHT22;57445;51.058;3.698;2022-10-15T09:57:46;18.60;98.30
70074;DHT22;57445;51.058;3.698;2022-10-15T10:00:20;18.50;98.80
70074;DHT22;57445;51.058;3.698;2022-10-15T10:03:03;18.80;98.10
70074;DHT22;57445;51.058;3.698;2022-10-15T10:05:35;19.10;97.40
70074;DHT22;57445;51.058;3.698;2022-10-15T10:08:09;19.20;97.60
70074;DHT22;57445;51.058;3.698;2022-10-15T10:10:44;19.40;97.30
70074;DHT22;57445;51.058;3.698;2022-10-15T10:13:27;19.50;97.10
70074;DHT22;57445;51.058;3.698;2022-10-15T10:16:03;19.60;96.50
70074;DHT22;57445;51.058;3.698;2022-10-15T10:18:31;19.10;97.80
70074;DHT22;57445;51.058;3.698;2022-10-15T10:21:06;19.20;97.80
70074;DHT22;57445;51.058;3.698;2022-10-15T10:23:38;19.40;97.50
70074;DHT22;57445;51.058;3.698;2022-10-15T10:26:11;19.50;97.20
70074;DHT22;57445;51.058;3.698;2022-10-15T10:28:45;19.20;97.40
70074;DHT22;57445;51.058;3.698;2022-10-15T10:31:27;19.00;97.80
70074;DHT22;57445;51.058;3.698;2022-10-15T10:33:59;19.00;97.80
70074;DHT22;57445;51.058;3.698;2022-10-15T10:36:33;19.00;98.00
70074;DHT22;57445;51.058;3.698;2022-10-15T10:39:04;19.20;97.50
70074;DHT22;57445;51.058;3.698;2022-10-15T10:41:49;19.10;97.30
70074;DHT22;57445;51.058;3.698;2022-10-15T10:44:27;19.20;97.10
70074;DHT22;57445;51.058;3.698;2022-10-15T10:47:11;19.10;97.50
70074;DHT22;57445;51.058;3.698;2022-10-15T10:49:44;19.00;97.40
70074;DHT22;57445;51.058;3.698;2022-10-15T10:52:24;19.30;96.90
70074;DHT22;57445;51.058;3.698;2022-10-15T10:54:58;19.40;96.80
70074;DHT22;57445;51.058;3.698;2022-10-15T10:57:34;19.60;96.60
70074;DHT22;57445;51.058;3.698;2022-10-15T11:00:13;19.70;96.20
70074;DHT22;57445;51.058;3.698;2022-10-15T11:02:42;19.50;96.20
70074;DHT22;57445;51.058;3.698;2022-10-15T11:05:16;19.40;96.80
70074;DHT22;57445;51.058;3.698;2022-10-15T11:07:56;19.50;96.70
70074;DHT22;57445;51.058;3.698;2022-10-15T11:10:35;19.30;96.30
70074;DHT22;57445;51.058;3.698;2022-10-15T11:13:18;19.20;96.70
70074;DHT22;57445;51.058;3.698;2022-10-15T11:15:58;19.20;96.30
70074;DHT22;57445;51.058;3.698;2022-10-15T11:18:38;19.30;96.00
70074;DHT22;57445;51.058;3.698;2022-10-15T11:21:16;19.20;96.10
70074;DHT22;57445;51.058;3.698;2022-10-15T11:26:50;18.80;96.30
70074;DHT22;57445;51.058;3.698;2022-10-15T11:29:31;18.70;94.80
70074;DHT22;57445;51.058;3.698;2022-10-15T11:32:12;18.50;94.70
70074;DHT22;57445;51.058;3.698;2022-10-15T11:35:05;18.50;93.90
70074;DHT22;57445;51.058;3.698;2022-10-15T11:37:45;18.50;94.10
70074;DHT22;57445;51.058;3.698;2022-10-15T11:40:20;18.50;94.00
70074;DHT22;57445;51.058;3.698;2022-10-15T11:42:58;18.30;93.60
70074;DHT22;57445;51.058;3.698;2022-10-15T11:45:59;18.40;93.60
70074;DHT22;57445;51.058;3.698;2022-10-15T11:48:44;18.60;93.00
70074;DHT22;57445;51.058;3.698;2022-10-15T11:51:23;18.50;93.10
70074;DHT22;57445;51.058;3.698;2022-10-15T11:54:15;18.20;93.10
70074;DHT22;57445;51.058;3.698;2022-10-15T11:56:46;18.20;93.10
70074;DHT22;57445;51.058;3.698;2022-10-15T11:59:22;18.30;92.50
70074;DHT22;57445;51.058;3.698;2022-10-15T12:01:59;18.20;92.40
70074;DHT22;57445;51.058;3.698;2022-10-15T12:04:35;18.20;92.60
70074;DHT22;57445;51.058;3.698;2022-10-15T12:07:06;18.40;92.50
70074;DHT22;57445;51.058;3.698;2022-10-15T12:09:42;18.70;91.90
70074;DHT22;57445;51.058;3.698;2022-10-15T12:12:21;18.80;91.40
70074;DHT22;57445;51.058;3.698;2022-10-15T12:15:04;18.90;91.20
70074;DHT22;57445;51.058;3.698;2022-10-15T12:17:44;18.80;91.60
70074;DHT22;57445;51.058;3.698;2022-10-15T12:20:20;18.90;91.80
70074;DHT22;57445;51.058;3.698;2022-10-15T12:22:57;18.80;92.20
70074;DHT22;57445;51.058;3.698;2022-10-15T12:25:44;18.70;91.60
70074;DHT22;57445;51.058;3.698;2022-10-15T12:28:20;18.70;90.90
70074;DHT22;57445;51.058;3.698;2022-10-15T12:30:57;18.60;90.70
70074;DHT22;57445;51.058;3.698;2022-10-15T12:33:31;18.70;90.60
70074;DHT22;57445;51.058;3.698;2022-10-15T12:36:02;18.70;90.50
70074;DHT22;57445;51.058;3.698;2022-10-15T12:38:36;18.70;90.50
70074;DHT22;57445;51.058;3.698;2022-10-15T12:41:11;18.70;90.50
70074;DHT22;57445;51.058;3.698;2022-10-15T12:43:50;18.80;90.70
70074;DHT22;57445;51.058;3.698;2022-10-15T12:46:34;18.80;90.60
70074;DHT22;57445;51.058;3.698;2022-10-15T12:52:56;18.80;90.90
70074;DHT22;57445;51.058;3.698;2022-10-15T12:55:31;18.80;90.50
70074;DHT22;57445;51.058;3.698;2022-10-15T12:58:28;18.80;90.20
70074;DHT22;57445;51.058;3.698;2022-10-15T13:01:04;18.80;90.60
70074;DHT22;57445;51.058;3.698;2022-10-15T13:03:35;19.00;90.30
70074;DHT22;57445;51.058;3.698;2022-10-15T13:06:21;19.00;90.20
70074;DHT22;57445;51.058;3.698;2022-10-15T13:09:04;18.80;90.50
70074;DHT22;57445;51.058;3.698;2022-10-15T13:11:36;18.80;90.70
70074;DHT22;57445;51.058;3.698;2022-10-15T13:14:22;18.90;90.70
70074;DHT22;57445;51.058;3.698;2022-10-15T13:16:57;19.00;90.60
70074;DHT22;57445;51.058;3.698;2022-10-15T13:19:27;19.00;90.60
70074;DHT22;57445;51.058;3.698;2022-10-15T13:21:57;18.90;90.60
70074;DHT22;57445;51.058;3.698;2022-10-15T13:24:39;18.60;91.30
70074;DHT22;57445;51.058;3.698;2022-10-15T13:27:14;18.50;91.60
70074;DHT22;57445;51.058;3.698;2022-10-15T13:29:53;18.70;91.50
70074;DHT22;57445;51.058;3.698;2022-10-15T13:32:30;19.00;90.80
70074;DHT22;57445;51.058;3.698;2022-10-15T13:35:09;19.30;90.50
70074;DHT22;57445;51.058;3.698;2022-10-15T13:37:43;19.50;90.20
70074;DHT22;57445;51.058;3.698;2022-10-15T13:40:19;19.80;89.20
70074;DHT22;57445;51.058;3.698;2022-10-15T13:42:58;19.70;88.10
70074;DHT22;57445;51.058;3.698;2022-10-15T13:45:26;19.30;88.70
70074;DHT22;57445;51.058;3.698;2022-10-15T13:47:59;19.10;89.30
70074;DHT22;57445;51.058;3.698;2022-10-15T13:50:32;19.10;89.40
70074;DHT22;57445;51.058;3.698;2022-10-15T13:53:14;19.00;87.90
70074;DHT22;57445;51.058;3.698;2022-10-15T13:55:52;19.20;86.20
70074;DHT22;57445;51.058;3.698;2022-10-15T13:58:23;18.90;86.20
70074;DHT22;57445;51.058;3.698;2022-10-15T14:00:58;18.90;86.80
70074;DHT22;57445;51.058;3.698;2022-10-15T14:03:35;18.90;86.90
70074;DHT22;57445;51.058;3.698;2022-10-15T14:06:13;19.20;85.20
70074;DHT22;57445;51.058;3.698;2022-10-15T14:08:42;19.40;84.60
70074;DHT22;57445;51.058;3.698;2022-10-15T14:11:16;19.50;83.50
70074;DHT22;57445;51.058;3.698;2022-10-15T14:13:45;19.80;81.30
70074;DHT22;57445;51.058;3.698;2022-10-15T14:16:19;19.50;81.90
70074;DHT22;57445;51.058;3.698;2022-10-15T14:18:49;19.40;83.00
70074;DHT22;57445;51.058;3.698;2022-10-15T14:21:23;19.50;83.30
70074;DHT22;57445;51.058;3.698;2022-10-15T14:24:03;19.40;83.60
70074;DHT22;57445;51.058;3.698;2022-10-15T14:26:34;19.40;84.10
70074;DHT22;57445;51.058;3.698;2022-10-15T14:29:02;19.60;83.50
70074;DHT22;57445;51.058;3.698;2022-10-15T14:31:35;19.60;83.40
70074;DHT22;57445;51.058;3.698;2022-10-15T14:34:27;19.40;84.20
70074;DHT22;57445;51.058;3.698;2022-10-15T14:36:55;19.40;84.40
70074;DHT22;57445;51.058;3.698;2022-10-15T14:39:30;19.30;85.00
70074;DHT22;57445;51.058;3.698;2022-10-15T14:42:05;19.30;85.00
70074;DHT22;57445;51.058;3.698;2022-10-15T14:44:41;19.10;85.40
70074;DHT22;57445;51.058;3.698;2022-10-15T14:47:16;19.00;85.60
70074;DHT22;57445;51.058;3.698;2022-10-15T14:49:46;19.30;85.30
70074;DHT22;57445;51.058;3.698;2022-10-15T14:52:18;19.10;86.20
70074;DHT22;57445;51.058;3.698;2022-10-15T14:55:02;19.10;85.80
70074;DHT22;57445;51.058;3.698;2022-10-15T14:57:42;19.40;85.20
70074;DHT22;57445;51.058;3.698;2022-10-15T15:00:24;19.40;85.00
70074;DHT22;57445;51.058;3.698;2022-10-15T15:03:03;19.30;84.50
70074;DHT22;57445;51.058;3.698;2022-10-15T15:05:44;19.20;84.50
70074;DHT22;57445;51.058;3.698;2022-10-15T15:08:12;19.30;84.00
70074;DHT22;57445;51.058;3.698;2022-10-15T15:10:40;19.20;84.30
70074;DHT22;57445;51.058;3.698;2022-10-15T15:13:18;19.20;84.40
70074;DHT22;57445;51.058;3.698;2022-10-15T15:15:51;18.90;83.60
70074;DHT22;57445;51.058;3.698;2022-10-15T15:18:19;18.90;83.90
70074;DHT22;57445;51.058;3.698;2022-10-15T15:20:48;18.80;84.30
70074;DHT22;57445;51.058;3.698;2022-10-15T15:23:20;18.70;85.20
70074;DHT22;57445;51.058;3.698;2022-10-15T15:25:48;18.70;85.60
70074;DHT22;57445;51.058;3.698;2022-10-15T15:28:19;18.50;86.50
70074;DHT22;57445;51.058;3.698;2022-10-15T15:30:50;18.50;87.20
70074;DHT22;57445;51.058;3.698;2022-10-15T15:33:21;18.50;86.90
70074;DHT22;57445;51.058;3.698;2022-10-15T15:35:50;18.50;86.80
70074;DHT22;57445;51.058;3.698;2022-10-15T15:38:21;18.50;87.60
70074;DHT22;57445;51.058;3.698;2022-10-15T15:40:49;18.40;88.10
70074;DHT22;57445;51.058;3.698;2022-10-15T15:43:18;18.50;87.60
70074;DHT22;57445;51.058;3.698;2022-10-15T15:45:50;18.40;87.70
70074;DHT22;57445;51.058;3.698;2022-10-15T15:48:18;18.20;88.30
70074;DHT22;57445;51.058;3.698;2022-10-15T15:50:46;18.10;89.30
70074;DHT22;57445;51.058;3.698;2022-10-15T15:53:14;18.20;89.10
70074;DHT22;57445;51.058;3.698;2022-10-15T15:55:41;18.10;89.30
70074;DHT22;57445;51.058;3.698;2022-10-15T15:58:13;18.10;89.80
70074;DHT22;57445;51.058;3.698;2022-10-15T16:00:42;18.40;89.20
70074;DHT22;57445;51.058;3.698;2022-10-15T16:03:15;18.50;87.40
70074;DHT22;57445;51.058;3.698;2022-10-15T16:05:42;18.30;87.70
70074;DHT22;57445;51.058;3.698;2022-10-15T16:08:14;18.20;88.30
70074;DHT22;57445;51.058;3.698;2022-10-15T16:10:47;18.30;88.20
70074;DHT22;57445;51.058;3.698;2022-10-15T16:13:14;18.20;87.70
70074;DHT22;57445;51.058;3.698;2022-10-15T16:15:44;18.20;87.10
70074;DHT22;57445;51.058;3.698;2022-10-15T16:18:11;18.10;87.10
70074;DHT22;57445;51.058;3.698;2022-10-15T16:20:40;18.20;87.40
70074;DHT22;57445;51.058;3.698;2022-10-15T16:23:08;18.30;86.70